Time;durP1;ratioP1;P1;durP2;ratioP2;P2;SDS_P1;SDS_P2;PMS_P1;PMS_P2;Temp;Humidity;BMP_temperature;BMP_pressure;BME280_temperature;BME280_humidity;BME280_pressure;Samples;Min_cycle;Max_cycle;Signal;HPM_P1;HPM_P2
2022/12/19 00:00:22;;;;;;;31.70;14.90;;;;;;;-142.75;100.00;78767.72;4962351;28;20072;-63
2022/12/19 00:02:47;;;;;;;35.30;14.77;;;;;;;-142.75;100.00;78767.72;4962378;28;20209;-63
2022/12/19 00:05:13;;;;;;;31.70;14.82;;;;;;;-142.75;100.00;78748.03;4962599;28;20308;-64
2022/12/19 00:07:38;;;;;;;29.15;14.10;;;;;;;-142.75;100.00;78750.00;4962466;28;20407;-65
2022/12/19 00:10:05;;;;;;;28.80;14.52;;;;;;;-142.75;100.00;78736.19;4962198;28;20305;-65
2022/12/19 00:12:31;;;;;;;34.23;15.80;;;;;;;-142.75;100.00;78726.34;4962069;28;20026;-64
2022/12/19 00:14:56;;;;;;;36.15;15.52;;;;;;;-142.75;100.00;78730.28;4962571;28;20274;-64
2022/12/19 00:17:22;;;;;;;34.35;15.73;;;;;;;-142.75;100.00;78746.03;4962543;28;20463;-64
2022/12/19 00:19:48;;;;;;;28.88;14.38;;;;;;;-142.75;100.00;78728.31;4962302;28;20410;-64
2022/12/19 00:22:13;;;;;;;34.25;15.43;;;;;;;-142.75;100.00;78708.63;4962842;28;20434;-64
2022/12/19 00:24:39;;;;;;;34.00;14.32;;;;;;;-142.75;100.00;78692.88;4962399;28;20411;-64
2022/12/19 00:27:04;;;;;;;33.78;15.02;;;;;;;-142.75;100.00;78698.78;4962408;28;20310;-63
2022/12/19 00:29:30;;;;;;;30.05;13.18;;;;;;;-142.75;100.00;78688.94;4962015;28;20313;-63
2022/12/19 00:31:57;;;;;;;26.27;13.15;;;;;;;-142.75;100.00;78667.25;4961933;28;20352;-63
2022/12/19 00:34:22;;;;;;;34.60;15.83;;;;;;;-142.75;100.00;78681.06;4962421;28;20063;-63
2022/12/19 00:36:48;;;;;;;33.13;14.30;;;;;;;-142.75;100.00;78671.22;4961995;28;20477;-63
2022/12/19 00:39:14;;;;;;;33.42;14.50;;;;;;;-142.75;100.00;78663.31;4961813;28;20489;-62
2022/12/19 00:41:40;;;;;;;29.75;14.20;;;;;;;-142.75;100.00;78649.53;4961751;28;20313;-63
2022/12/19 00:44:16;;;;;;;26.73;13.07;;;;;;;-142.75;100.00;78661.34;4962116;28;20138;-63
2022/12/19 00:46:42;;;;;;;28.07;12.57;;;;;;;-142.75;100.00;78631.81;4961707;28;20025;-63
2022/12/19 00:49:07;;;;;;;30.83;14.50;;;;;;;-142.75;100.00;78625.91;4961807;28;20048;-65
2022/12/19 00:51:35;;;;;;;28.92;14.23;;;;;;;-142.75;100.00;78620.00;4961743;28;20406;-63
2022/12/19 00:54:02;;;;;;;28.27;14.60;;;;;;;-142.75;100.00;78614.09;4961936;28;20018;-63
2022/12/19 00:56:29;;;;;;;;;;;;;;;-142.75;100.00;78621.97;4962209;28;20025;-63
2022/12/19 00:58:55;;;;;;;32.20;12.23;;;;;;;-142.75;100.00;78606.22;4961908;28;20464;-63
2022/12/19 01:01:24;;;;;;;35.40;15.67;;;;;;;-142.75;100.00;78604.25;4962212;28;20045;-63
2022/12/19 01:03:50;;;;;;;32.77;14.90;;;;;;;-142.75;100.00;78606.22;4962070;28;20060;-64
2022/12/19 01:06:16;;;;;;;30.27;15.02;;;;;;;-142.75;100.00;78600.31;4961895;28;20120;-64
2022/12/19 01:08:42;;;;;;;34.92;15.63;;;;;;;-142.75;100.00;78578.63;4961349;28;20160;-63
2022/12/19 01:11:08;;;;;;;35.42;15.18;;;;;;;-142.75;100.00;78590.47;4961743;28;20192;-62
2022/12/19 01:13:36;;;;;;;40.30;14.90;;;;;;;-142.75;100.00;78582.59;4961859;28;20128;-63
2022/12/19 01:16:07;;;;;;;33.33;15.20;;;;;;;-142.75;100.00;78588.50;4961801;28;20565;-63
2022/12/19 01:18:33;;;;;;;35.57;15.67;;;;;;;-142.75;100.00;78586.53;4962580;28;20558;-63
2022/12/19 01:21:01;;;;;;;37.80;14.20;;;;;;;-142.75;100.00;78586.53;4961495;28;20029;-63
2022/12/19 01:23:26;;;;;;;36.37;14.67;;;;;;;-142.75;100.00;78570.75;4961128;28;20040;-63
2022/12/19 01:25:54;;;;;;;33.50;15.90;;;;;;;-142.75;100.00;78566.81;4961714;28;20351;-64
2022/12/19 01:28:19;;;;;;;32.00;15.07;;;;;;;-142.75;100.00;78568.78;4959955;28;20029;-64
2022/12/19 01:30:45;;;;;;;42.38;15.15;;;;;;;-142.75;100.00;78568.78;4961604;28;20428;-63
2022/12/19 01:33:11;;;;;;;37.33;17.20;;;;;;;-142.75;100.00;78562.88;4961540;28;20188;-63
2022/12/19 01:35:38;;;;;;;28.33;13.93;;;;;;;-142.75;100.00;78555.00;4962539;28;20029;-64
2022/12/19 01:38:03;;;;;;;31.53;14.80;;;;;;;-142.75;100.00;78547.13;4962006;28;20574;-62
2022/12/19 01:40:30;;;;;;;38.20;15.90;;;;;;;-142.75;100.00;78537.28;4961618;28;20025;-64
2022/12/19 01:42:55;;;;;;;;;;;;;;;-142.75;100.00;78537.28;4962162;28;20021;-63
2022/12/19 01:45:31;;;;;;;34.53;15.50;;;;;;;-142.75;100.00;78541.22;4961327;28;20310;-64
2022/12/19 01:48:14;;;;;;;33.40;16.20;;;;;;;-142.75;100.00;78531.38;4961471;28;20068;-63
2022/12/19 01:50:42;;;;;;;35.00;14.13;;;;;;;-142.75;100.00;78531.38;4964533;28;20083;-64
2022/12/19 01:53:10;;;;;;;31.37;14.53;;;;;;;-142.75;100.00;78515.63;4964838;28;20049;-64
2022/12/19 01:55:38;;;;;;;26.43;13.67;;;;;;;-142.75;100.00;78511.69;4964732;28;20018;-64
2022/12/19 01:58:04;;;;;;;34.53;15.07;;;;;;;-142.75;100.00;78511.69;4965153;28;20022;-64
2022/12/19 02:00:30;;;;;;;32.13;15.18;;;;;;;-142.75;100.00;78501.84;4964565;28;20026;-64
2022/12/19 02:03:06;;;;;;;31.95;15.52;;;;;;;-142.75;100.00;78482.13;4970482;28;20333;-63
2022/12/19 02:05:32;;;;;;;34.80;15.10;;;;;;;-142.75;100.00;78472.28;4965145;28;20025;-63
2022/12/19 02:07:59;;;;;;;38.88;14.85;;;;;;;-142.75;100.00;78472.28;4964474;28;20254;-63
2022/12/19 02:10:24;;;;;;;31.13;14.63;;;;;;;-142.75;100.00;78464.41;4964316;28;20052;-63
2022/12/19 02:12:50;;;;;;;35.13;14.45;;;;;;;-142.75;100.00;78460.47;4964431;28;20497;-62
2022/12/19 02:15:16;;;;;;;33.00;14.55;;;;;;;-142.75;100.00;78434.88;4964518;28;20336;-63
2022/12/19 02:17:48;;;;;;;36.70;14.53;;;;;;;-142.75;100.00;78436.84;4964420;28;20025;-63
2022/12/19 02:20:19;;;;;;;32.30;14.50;;;;;;;-142.75;100.00;78440.78;4964083;28;20595;-63
2022/12/19 02:23:06;;;;;;;33.20;14.33;;;;;;;-142.75;100.00;78423.06;4964222;28;20550;-63
2022/12/19 02:25:53;;;;;;;32.60;14.93;;;;;;;-142.75;100.00;78413.22;4955499;28;20092;-63
2022/12/19 02:28:36;;;;;;;25.80;12.52;;;;;;;-142.75;100.00;78405.34;4963921;28;20033;-62
2022/12/19 02:31:16;;;;;;;30.93;13.07;;;;;;;-142.75;100.00;78397.44;4956164;28;20096;-64
2022/12/19 02:33:57;;;;;;;33.07;14.03;;;;;;;-142.75;100.00;78379.72;4963669;28;20025;-63
2022/12/19 02:36:50;;;;;;;32.20;13.97;;;;;;;-142.75;100.00;78373.81;4963876;28;20757;-62
2022/12/19 02:39:31;;;;;;;32.57;13.50;;;;;;;-142.75;100.00;78369.88;4963870;28;20022;-62
2022/12/19 02:41:57;;;;;;;31.73;13.63;;;;;;;-142.75;100.00;78365.94;4962654;28;20628;-62
2022/12/19 02:44:32;;;;;;;33.33;14.47;;;;;;;-142.75;100.00;78354.13;4964400;28;20097;-63
2022/12/19 02:47:00;;;;;;;27.57;13.60;;;;;;;-142.75;100.00;78371.84;4963940;28;20698;-63
2022/12/19 02:49:28;;;;;;;26.77;12.90;;;;;;;-142.75;100.00;78338.38;4963559;28;20592;-60
2022/12/19 02:51:54;;;;;;;29.47;12.83;;;;;;;-142.75;100.00;78330.50;4964229;28;20021;-63
2022/12/19 02:54:20;;;;;;;24.17;12.30;;;;;;;-142.75;100.00;78330.50;4963504;28;20324;-63
2022/12/19 02:56:54;;;;;;;22.83;12.13;;;;;;;-142.75;100.00;78324.59;4964327;28;20576;-62
2022/12/19 03:00:02;;;;;;;27.53;13.13;;;;;;;-142.75;100.00;78314.75;4963703;28;20052;-63
2022/12/19 03:02:30;;;;;;;24.00;11.07;;;;;;;-142.75;100.00;78312.78;4946740;28;20033;-63
2022/12/19 03:05:02;;;;;;;24.67;11.53;;;;;;;-142.75;100.00;78308.84;4963485;28;20072;-63
2022/12/19 03:07:44;;;;;;;20.20;10.27;;;;;;;-142.75;100.00;78299.00;4963271;28;20093;-61
2022/12/19 03:10:28;;;;;;;22.43;10.90;;;;;;;-142.75;100.00;78291.09;4963144;28;20534;-63
2022/12/19 03:13:06;;;;;;;22.37;10.90;;;;;;;-142.75;100.00;78299.00;4963284;28;20143;-62
2022/12/19 03:15:32;;;;;;;20.70;10.67;;;;;;;-142.75;100.00;78285.19;4963069;28;20056;-62
2022/12/19 03:18:00;;;;;;;26.03;11.07;;;;;;;-142.75;100.00;78287.16;4963259;28;20021;-63
2022/12/19 03:20:56;;;;;;;18.37;10.17;;;;;;;-142.75;100.00;78269.44;4962880;28;20052;-61
2022/12/19 03:23:22;;;;;;;20.40;10.40;;;;;;;-142.75;100.00;78261.56;4963247;28;20632;-62
2022/12/19 03:25:56;;;;;;;21.98;11.63;;;;;;;-142.75;100.00;78263.53;4962826;28;20037;-62
2022/12/19 03:28:43;;;;;;;21.30;11.13;;;;;;;-142.75;100.00;78257.63;4962040;28;20025;-62
2022/12/19 03:31:11;;;;;;;20.60;11.43;;;;;;;-142.75;100.00;78247.78;4943603;28;20093;-62
2022/12/19 03:33:38;;;;;;;22.17;11.50;;;;;;;-142.75;100.00;78237.94;4956268;28;20571;-62
2022/12/19 03:36:09;;;;;;;22.23;11.70;;;;;;;-142.75;100.00;78230.06;4963176;28;20017;-64
2022/12/19 03:38:36;;;;;;;21.70;11.57;;;;;;;-142.75;100.00;78232.03;4962546;28;20029;-63
2022/12/19 03:41:05;;;;;;;23.33;12.03;;;;;;;-142.75;100.00;78230.06;4962795;28;20017;-62
2022/12/19 03:43:32;;;;;;;22.07;11.60;;;;;;;-142.75;100.00;78216.28;4962932;28;20109;-62
2022/12/19 03:46:10;;;;;;;23.83;12.50;;;;;;;-142.75;100.00;78226.13;4962916;28;20538;-62
2022/12/19 03:48:46;;;;;;;25.07;12.07;;;;;;;-142.75;100.00;78204.47;4962494;28;20021;-62
2022/12/19 03:51:21;;;;;;;21.40;10.80;;;;;;;-142.75;100.00;78212.34;4962633;28;20025;-63
2022/12/19 03:54:17;;;;;;;20.30;10.87;;;;;;;-142.75;100.00;78200.53;4962667;28;20033;-62
2022/12/19 03:56:55;;;;;;;21.47;11.03;;;;;;;-142.75;100.00;78176.88;4957557;28;20029;-63
2022/12/19 03:59:38;;;;;;;21.30;11.27;;;;;;;-142.75;100.00;78176.88;4962395;28;20143;-63
2022/12/19 04:02:04;;;;;;;21.53;11.77;;;;;;;-142.75;100.00;78157.19;4960960;28;20051;-62
2022/12/19 04:04:33;;;;;;;24.00;11.90;;;;;;;-142.75;100.00;78172.94;4944622;28;20426;-62
2022/12/19 04:07:01;;;;;;;22.20;12.27;;;;;;;-142.75;100.00;78161.13;4962314;28;20768;-62
2022/12/19 04:09:28;;;;;;;20.77;12.43;;;;;;;-142.75;100.00;78149.31;4962079;28;20048;-62
2022/12/19 04:12:04;;;;;;;22.83;12.20;;;;;;;-142.75;100.00;78149.31;4962033;28;20017;-63
2022/12/19 04:14:32;;;;;;;22.50;12.50;;;;;;;-142.75;100.00;78153.25;4954654;28;20052;-63
2022/12/19 04:17:04;;;;;;;19.97;11.53;;;;;;;-142.75;100.00;78141.44;4962005;28;20033;-63
2022/12/19 04:19:45;;;;;;;20.00;12.20;;;;;;;-142.75;100.00;78137.50;4962070;28;20083;-63
2022/12/19 04:22:25;;;;;;;17.77;11.07;;;;;;;-142.75;100.00;78121.75;4964297;28;20025;-64
2022/12/19 04:24:53;;;;;;;16.33;10.67;;;;;;;-142.75;100.00;78115.84;4967248;28;20026;-63
2022/12/19 04:27:20;;;;;;;19.47;11.33;;;;;;;-142.75;100.00;78113.88;4961974;28;20022;-62
2022/12/19 04:29:47;;;;;;;23.33;12.83;;;;;;;-142.75;100.00;78119.78;4961801;28;20022;-63
2022/12/19 04:32:13;;;;;;;20.67;11.83;;;;;;;-142.75;100.00;78109.94;4961942;28;20036;-62
2022/12/19 04:34:39;;;;;;;20.77;11.97;;;;;;;-142.75;100.00;78102.06;4962122;28;20021;-64
2022/12/19 04:37:05;;;;;;;19.90;11.52;;;;;;;-142.75;100.00;78082.38;4962115;28;20106;-63
2022/12/19 04:39:31;;;;;;;23.88;10.38;;;;;;;-142.75;100.00;78070.56;4962015;28;20025;-61
2022/12/19 04:41:57;;;;;;;19.52;11.15;;;;;;;-142.75;100.00;78056.78;4961897;28;20033;-63
2022/12/19 04:44:22;;;;;;;19.15;11.75;;;;;;;-142.75;100.00;78054.81;4962188;28;20287;-62
2022/12/19 04:46:48;;;;;;;19.55;10.75;;;;;;;-142.75;100.00;78056.78;4962152;28;20328;-65
2022/12/19 04:49:13;;;;;;;17.40;11.40;;;;;;;-142.75;100.00;78046.91;4962023;28;20395;-63
2022/12/19 04:51:39;;;;;;;23.05;10.95;;;;;;;-142.75;100.00;78023.28;4962085;28;20380;-64
2022/12/19 04:54:04;;;;;;;19.35;11.35;;;;;;;-142.75;100.00;78015.41;4944512;28;20344;-64
2022/12/19 04:56:30;;;;;;;21.02;11.43;;;;;;;-142.75;100.00;78015.41;4961805;28;20479;-63
2022/12/19 04:58:57;;;;;;;21.75;11.60;;;;;;;-142.75;100.00;78009.50;4961692;28;20317;-64
2022/12/19 05:01:23;;;;;;;19.27;10.87;;;;;;;-142.75;100.00;77995.72;4962411;28;20029;-63
2022/12/19 05:03:48;;;;;;;23.10;12.15;;;;;;;-142.75;100.00;77999.66;4961838;28;20378;-64
2022/12/19 05:06:14;;;;;;;17.83;10.80;;;;;;;-142.75;100.00;77981.94;4962000;28;20347;-63
2022/12/19 05:08:41;;;;;;;18.90;10.95;;;;;;;-142.75;100.00;77972.09;4962609;28;20320;-64
2022/12/19 05:11:12;;;;;;;22.27;11.47;;;;;;;-142.75;100.00;77972.09;4961784;28;20025;-64
2022/12/19 05:13:38;;;;;;;17.80;10.90;;;;;;;-142.75;100.00;77952.41;4961730;28;20064;-64
2022/12/19 05:16:07;;;;;;;23.70;11.13;;;;;;;-142.75;100.00;77944.53;4961963;28;20548;-62
2022/12/19 05:18:34;;;;;;;24.73;11.07;;;;;;;-142.75;100.00;77956.34;4961838;28;20017;-63
2022/12/19 05:20:59;;;;;;;23.87;11.17;;;;;;;-142.75;100.00;77938.63;4962115;28;20021;-61
2022/12/19 05:23:25;;;;;;;20.05;10.80;;;;;;;-142.75;100.00;77932.72;4961879;28;20371;-62
2022/12/19 05:25:51;;;;;;;18.63;11.10;;;;;;;-142.75;100.00;77934.69;4965745;28;20328;-63
2022/12/19 05:28:18;;;;;;;23.90;11.05;;;;;;;-142.75;100.00;77934.69;4965714;28;20321;-64
2022/12/19 05:30:44;;;;;;;20.60;11.00;;;;;;;-142.75;100.00;77920.91;4965323;28;20554;-63
2022/12/19 05:33:09;;;;;;;22.05;11.07;;;;;;;-142.75;100.00;77922.88;4965272;28;20025;-63
2022/12/19 05:35:36;;;;;;;20.40;11.48;;;;;;;-142.75;100.00;77922.88;4965077;28;20340;-64
2022/12/19 05:38:01;;;;;;;23.30;12.47;;;;;;;-142.75;100.00;77936.66;4965216;28;20051;-64
2022/12/19 05:40:27;;;;;;;20.10;10.95;;;;;;;-142.75;100.00;77926.81;4964978;28;20367;-64
2022/12/19 05:42:53;;;;;;;21.67;11.88;;;;;;;-142.75;100.00;77926.81;4965141;28;20582;-63
2022/12/19 05:45:18;;;;;;;20.58;11.80;;;;;;;-142.75;100.00;77924.84;4964828;28;20055;-63
2022/12/19 05:47:45;;;;;;;19.60;11.07;;;;;;;-142.75;100.00;77924.84;4964871;28;20309;-64
2022/12/19 05:50:11;;;;;;;23.97;12.23;;;;;;;-142.75;100.00;77913.03;4964595;28;20029;-64
2022/12/19 05:52:37;;;;;;;20.33;12.00;;;;;;;-142.75;100.00;77913.03;4964951;28;20056;-64
2022/12/19 05:55:04;;;;;;;19.13;10.68;;;;;;;-142.75;100.00;77903.16;4965212;28;20430;-62
2022/12/19 05:57:29;;;;;;;16.33;10.47;;;;;;;-142.75;100.00;77913.03;4964748;28;20045;-64
2022/12/19 05:59:55;;;;;;;23.65;12.20;;;;;;;-142.75;100.00;77905.13;4966034;28;20359;-63
2022/12/19 06:02:20;;;;;;;21.30;10.82;;;;;;;-142.75;100.00;77905.13;4964811;28;20177;-63
2022/12/19 06:04:46;;;;;;;15.32;10.60;;;;;;;-142.75;100.00;77909.06;4966149;28;20457;-62
2022/12/19 06:07:12;;;;;;;20.08;11.57;;;;;;;-142.75;100.00;77911.06;4966526;28;20455;-61
2022/12/19 06:09:37;;;;;;;21.42;9.95;;;;;;;-142.75;100.00;77899.22;4964421;28;20320;-63
2022/12/19 06:12:03;;;;;;;17.85;9.50;;;;;;;-142.75;100.00;77913.03;4952284;28;20319;-63
2022/12/19 06:14:28;;;;;;;21.77;10.93;;;;;;;-142.75;100.00;77913.03;4964951;28;20356;-62
2022/12/19 06:16:54;;;;;;;19.52;10.10;;;;;;;-142.75;100.00;77897.25;4964746;28;20059;-62
2022/12/19 06:19:19;;;;;;;17.45;10.05;;;;;;;-142.75;100.00;77893.31;4964510;28;20410;-64
2022/12/19 06:21:45;;;;;;;18.20;10.18;;;;;;;-142.75;100.00;77889.38;4964786;28;20321;-62
2022/12/19 06:24:10;;;;;;;22.17;10.35;;;;;;;-142.75;100.00;77889.38;4964492;28;20040;-64
2022/12/19 06:26:36;;;;;;;20.50;10.85;;;;;;;-142.75;100.00;77887.41;4964369;28;20381;-64
2022/12/19 06:29:02;;;;;;;20.42;10.32;;;;;;;-142.75;100.00;77887.41;4964060;28;20029;-64
2022/12/19 06:31:27;;;;;;;24.30;10.18;;;;;;;-142.75;100.00;77859.84;4964140;28;20313;-64
2022/12/19 06:33:54;;;;;;;20.45;10.18;;;;;;;-142.75;100.00;77865.75;4966652;28;20313;-63
2022/12/19 06:36:24;;;;;;;20.53;9.00;;;;;;;-142.75;100.00;77863.78;4963488;28;20047;-63
2022/12/19 06:38:50;;;;;;;21.73;9.63;;;;;;;-142.75;100.00;77863.78;4963836;28;20033;-64
2022/12/19 06:44:02;;;;;;;16.93;9.17;;;;;;;-142.75;100.00;77853.94;4964514;28;20597;-63
2022/12/19 06:46:28;;;;;;;21.87;10.80;;;;;;;-142.75;100.00;77842.13;4963873;28;20025;-64
2022/12/19 06:48:54;;;;;;;19.83;10.30;;;;;;;-142.75;100.00;77853.94;4963760;28;20052;-64
2022/12/19 06:51:20;;;;;;;17.27;9.10;;;;;;;-142.75;100.00;77853.94;4963844;28;20351;-64
2022/12/19 06:53:45;;;;;;;17.42;8.93;;;;;;;-142.75;100.00;77844.09;4963691;28;20347;-64
2022/12/19 06:56:13;;;;;;;18.67;9.38;;;;;;;-142.75;100.00;77846.06;4964306;28;20343;-65
2022/12/19 06:58:39;;;;;;;23.73;10.83;;;;;;;-142.75;100.00;77846.06;4963547;28;20554;-64
2022/12/19 07:01:04;;;;;;;19.95;10.43;;;;;;;-142.75;100.00;77842.13;4963659;28;20025;-64
2022/12/19 07:03:36;;;;;;;20.98;9.00;;;;;;;-142.75;100.00;77822.44;4963623;28;20332;-64
2022/12/19 07:06:03;;;;;;;13.17;7.80;;;;;;;-142.75;100.00;77828.34;4963727;28;20056;-63
2022/12/19 07:08:28;;;;;;;17.13;9.53;;;;;;;-142.75;100.00;77832.28;4963414;28;20083;-64
2022/12/19 07:10:55;;;;;;;18.98;8.80;;;;;;;-142.75;100.00;77830.31;4963672;28;20037;-64
2022/12/19 07:13:20;;;;;;;15.03;8.40;;;;;;;-142.75;100.00;77818.50;4963972;28;20029;-64
2022/12/19 07:15:47;;;;;;;17.90;8.73;;;;;;;-142.75;100.00;77826.38;4963359;28;20319;-65
2022/12/19 07:18:13;;;;;;;16.43;9.33;;;;;;;-142.75;100.00;77828.34;4963487;28;20025;-65
2022/12/19 07:20:41;;;;;;;19.38;8.70;;;;;;;-142.75;100.00;77836.22;4964036;28;20293;-65
2022/12/19 07:23:08;;;;;;;14.07;8.57;;;;;;;-142.75;100.00;77814.56;4963348;28;20041;-65
2022/12/19 07:25:35;;;;;;;13.20;7.50;;;;;;;-142.75;100.00;77818.50;4963481;28;20136;-65
2022/12/19 07:28:01;;;;;;;16.73;7.97;;;;;;;-142.75;100.00;77810.63;4963292;28;20083;-64
2022/12/19 07:30:27;;;;;;;13.77;7.55;;;;;;;-142.75;100.00;77818.50;4963334;28;20371;-64
2022/12/19 07:32:52;;;;;;;14.43;8.32;;;;;;;-142.75;100.00;77832.28;4963069;28;20418;-64
2022/12/19 07:35:21;;;;;;;16.25;8.07;;;;;;;-142.75;100.00;77828.34;4963250;28;20250;-65
2022/12/19 07:37:48;;;;;;;16.00;8.53;;;;;;;-142.75;100.00;77822.44;4963107;28;20025;-65
2022/12/19 07:40:13;;;;;;;;;;;;;;;-142.75;100.00;77818.50;4964073;28;20607;-63
2022/12/19 07:42:39;;;;;;;11.73;7.33;;;;;;;-142.75;100.00;77812.59;4962919;28;19912;-63
2022/12/19 07:45:05;;;;;;;16.45;7.70;;;;;;;-142.75;100.00;77818.50;4962877;28;20544;-62
2022/12/19 07:47:30;;;;;;;14.23;7.10;;;;;;;-142.75;100.00;77816.53;4961997;28;20348;-63
2022/12/19 07:49:56;;;;;;;16.83;7.57;;;;;;;-142.75;100.00;77816.53;4963232;28;20438;-63
2022/12/19 07:52:21;;;;;;;14.18;7.43;;;;;;;-142.75;100.00;77818.50;4962719;28;20419;-63
2022/12/19 07:54:47;;;;;;;16.13;7.53;;;;;;;-142.75;100.00;77820.47;4962692;28;20347;-63
2022/12/19 07:57:12;;;;;;;14.38;7.63;;;;;;;-142.75;100.00;77810.63;4962642;28;20362;-64
2022/12/19 07:59:38;;;;;;;14.35;7.32;;;;;;;-142.75;100.00;77828.34;4962411;28;20340;-63
2022/12/19 08:02:03;;;;;;;12.13;6.75;;;;;;;-142.75;100.00;77824.41;4993124;22;20490;-64
2022/12/19 08:04:29;;;;;;;14.15;7.55;;;;;;;-142.75;100.00;77818.50;4984429;28;20381;-64
2022/12/19 08:06:54;;;;;;;14.15;7.22;;;;;;;-142.75;100.00;77810.63;4984026;28;20076;-64
2022/12/19 08:09:20;;;;;;;10.45;6.60;;;;;;;-142.75;100.00;77814.56;4984212;28;20320;-64
2022/12/19 08:11:45;;;;;;;14.27;7.05;;;;;;;-142.75;100.00;77810.63;4981988;28;20328;-65
2022/12/19 08:14:11;;;;;;;13.82;7.57;;;;;;;-142.75;100.00;77806.69;4983155;28;20366;-65
2022/12/19 08:16:36;;;;;;;13.50;6.72;;;;;;;-142.75;100.00;77814.56;4984082;28;20334;-65
2022/12/19 08:19:02;;;;;;;11.68;6.72;;;;;;;-142.75;100.00;77802.75;4982791;28;20465;-65
2022/12/19 08:21:29;;;;;;;14.98;7.20;;;;;;;-142.75;100.00;77808.66;4981261;28;20035;-65
2022/12/19 08:23:54;;;;;;;14.03;6.97;;;;;;;-142.75;100.00;77804.72;4983894;28;20048;-65
2022/12/19 08:26:24;;;;;;;16.30;7.43;;;;;;;-142.75;100.00;77802.75;4983668;28;20485;-65
2022/12/19 08:28:54;;;;;;;13.10;7.13;;;;;;;-142.75;100.00;77806.69;4981378;28;20033;-66
2022/12/19 08:31:23;;;;;;;14.33;7.73;;;;;;;-142.75;100.00;77808.66;4982080;28;20037;-65
2022/12/19 08:33:49;;;;;;;16.27;8.07;;;;;;;-142.75;100.00;77810.63;4983648;28;20017;-65
2022/12/19 08:36:15;;;;;;;;;;;;;;;-142.75;100.00;77806.69;4984481;28;20039;-65
2022/12/19 08:38:41;;;;;;;19.17;9.00;;;;;;;-142.75;100.00;77814.56;4981088;28;19923;-65
2022/12/19 08:41:07;;;;;;;24.88;14.85;;;;;;;-142.75;100.00;77800.78;4981260;28;20390;-65
2022/12/19 08:43:33;;;;;;;18.17;10.20;;;;;;;-142.75;100.00;77798.81;4981748;28;20017;-65
2022/12/19 08:45:58;;;;;;;14.25;7.93;;;;;;;-142.75;100.00;77812.59;4981572;28;20322;-65
2022/12/19 08:48:24;;;;;;;20.38;8.75;;;;;;;-142.75;100.00;77808.66;4981670;28;20051;-65
2022/12/19 08:50:51;;;;;;;11.48;7.13;;;;;;;-142.75;100.00;77816.53;4981118;28;20050;-65
2022/12/19 08:53:17;;;;;;;13.63;7.50;;;;;;;-142.75;100.00;77814.56;4981892;28;20056;-64
2022/12/19 08:55:42;;;;;;;12.27;7.65;;;;;;;-142.75;100.00;77814.56;5009803;28;20026;-65
2022/12/19 08:58:07;;;;;;;10.93;6.97;;;;;;;-142.75;100.00;77812.59;5038644;28;20017;-65
2022/12/19 09:00:33;;;;;;;14.05;7.70;;;;;;;-142.75;100.00;77802.75;5043021;28;20419;-64
2022/12/19 09:02:58;;;;;;;13.57;7.75;;;;;;;-142.75;100.00;77806.69;5038576;28;20028;-65
2022/12/19 09:05:24;;;;;;;11.50;7.05;;;;;;;-142.75;100.00;77796.84;5035364;28;20113;-65
2022/12/19 09:07:49;;;;;;;14.50;7.20;;;;;;;-142.75;100.00;77802.75;5033991;28;20033;-65
2022/12/19 09:10:14;;;;;;;13.37;7.40;;;;;;;-142.75;100.00;77800.78;5038834;28;20311;-65
2022/12/19 09:12:39;;;;;;;12.50;7.40;;;;;;;-142.75;100.00;77794.88;5040941;28;20302;-65
2022/12/19 09:15:05;;;;;;;13.43;6.83;;;;;;;-142.75;100.00;77814.56;5043655;28;20028;-66
2022/12/19 09:17:30;;;;;;;15.65;7.10;;;;;;;-142.75;100.00;77798.81;5036061;28;20302;-66
2022/12/19 09:19:56;;;;;;;14.20;7.40;;;;;;;-142.75;100.00;77804.72;5040527;28;20059;-65
2022/12/19 09:22:21;;;;;;;12.50;6.93;;;;;;;-142.75;100.00;77802.75;5042857;28;20275;-66
2022/12/19 09:24:46;;;;;;;10.83;7.07;;;;;;;-142.75;100.00;77814.56;5043729;28;20295;-65
2022/12/19 09:27:11;;;;;;;13.48;6.72;;;;;;;-142.75;100.00;77804.72;5040397;28;20033;-66
2022/12/19 09:29:37;;;;;;;13.20;6.97;;;;;;;-142.75;100.00;77808.66;5025867;28;20025;-65
2022/12/19 09:32:02;;;;;;;14.10;7.15;;;;;;;-142.75;100.00;77794.88;5043520;28;20036;-65
2022/12/19 09:34:28;;;;;;;10.68;6.15;;;;;;;-142.75;100.00;77790.94;5043446;28;20453;-66
2022/12/19 09:36:53;;;;;;;13.02;7.68;;;;;;;-142.75;100.00;77800.78;5042703;28;20488;-65
2022/12/19 09:39:18;;;;;;;12.55;7.43;;;;;;;-142.75;100.00;77806.69;5040698;28;20418;-65
2022/12/19 09:42:14;;;;;;;11.35;6.88;;;;;;;-142.75;100.00;77802.75;5041635;28;20029;-65
2022/12/19 09:45:16;;;;;;;10.93;7.20;;;;;;;-142.75;100.00;77794.88;5024537;28;20550;-66
2022/12/19 09:47:45;;;;;;;18.87;6.70;;;;;;;-142.75;100.00;77814.56;4978885;28;20534;-65
2022/12/19 09:50:40;;;;;;;11.93;7.43;;;;;;;-142.75;100.00;77783.06;4985354;28;20028;-66
2022/12/19 09:53:15;;;;;;;19.97;8.03;;;;;;;-142.75;100.00;77787.00;4981984;28;20175;-66
2022/12/19 09:55:41;;;;;;;12.37;6.57;;;;;;;-142.75;100.00;77802.75;4985742;28;20132;-65
2022/12/19 09:58:24;;;;;;;9.43;6.07;;;;;;;-142.75;100.00;77781.09;4986559;28;20136;-66
2022/12/19 10:01:00;;;;;;;11.43;5.97;;;;;;;-142.75;100.00;77773.22;4985856;28;20059;-66
2022/12/19 10:03:34;;;;;;;13.30;6.70;;;;;;;-142.75;100.00;77769.28;4965617;28;20839;-66
2022/12/19 10:06:16;;;;;;;9.63;5.47;;;;;;;-142.75;100.00;77773.22;4982875;28;20043;-66
2022/12/19 10:08:43;;;;;;;13.57;6.73;;;;;;;-142.75;100.00;77771.25;4965437;28;20110;-65
2022/12/19 10:11:11;;;;;;;10.23;5.90;;;;;;;-142.75;100.00;77769.28;4982372;28;20037;-66
2022/12/19 10:13:52;;;;;;;11.53;6.73;;;;;;;-142.75;100.00;77759.44;4983721;28;20024;-66
2022/12/19 10:16:55;;;;;;;15.83;10.27;;;;;;;-142.75;100.00;77771.25;4983138;28;20049;-67
2022/12/19 10:19:44;;;;;;;11.30;7.23;;;;;;;-142.75;100.00;77767.31;4983680;28;20060;-67
2022/12/19 10:22:21;;;;;;;8.43;5.53;;;;;;;-142.75;100.00;77753.53;4964456;28;20845;-67
2022/12/19 10:24:50;;;;;;;9.33;6.07;;;;;;;-142.75;100.00;77763.38;4983922;28;20086;-66
2022/12/19 10:27:36;;;;;;;12.90;5.80;;;;;;;-142.75;100.00;77757.47;4985661;28;20024;-66
2022/12/19 10:30:21;;;;;;;9.80;5.77;;;;;;;-142.75;100.00;77753.53;4983301;28;20599;-66
2022/12/19 10:32:57;;;;;;;10.97;5.70;;;;;;;-142.75;100.00;77759.44;4983482;28;20025;-65
2022/12/19 10:35:29;;;;;;;10.40;5.70;;;;;;;-142.75;100.00;77745.66;4965570;28;20036;-66
2022/12/19 10:38:07;;;;;;;8.93;5.43;;;;;;;-142.75;100.00;77747.63;4983235;28;20033;-66
2022/12/19 10:40:42;;;;;;;8.97;5.33;;;;;;;-142.75;100.00;77743.69;4983438;28;20127;-66
2022/12/19 10:43:21;;;;;;;12.57;5.50;;;;;;;-142.75;100.00;77751.56;4984004;28;20052;-67
2022/12/19 10:45:51;;;;;;;9.03;5.00;;;;;;;-142.75;100.00;77743.69;4984023;28;20106;-66
2022/12/19 10:48:20;;;;;;;9.87;5.37;;;;;;;-142.75;100.00;77737.78;4982763;28;20597;-66
2022/12/19 10:50:46;;;;;;;9.60;4.63;;;;;;;-142.75;100.00;77723.97;4983351;28;20102;-67
2022/12/19 10:53:12;;;;;;;9.63;5.00;;;;;;;-142.75;100.00;77712.16;4983385;28;20033;-66
2022/12/19 10:55:50;;;;;;;11.83;5.13;;;;;;;-142.75;100.00;77706.25;4985142;28;20482;-66
2022/12/19 10:58:19;;;;;;;9.90;5.57;;;;;;;-142.75;100.00;77696.41;4983908;28;20025;-66
2022/12/19 11:01:04;;;;;;;10.40;6.00;;;;;;;-142.75;100.00;77694.44;4983154;28;20020;-66
2022/12/19 11:03:32;;;;;;;10.18;5.22;;;;;;;-142.75;100.00;77700.34;4975281;28;20033;-66
2022/12/19 11:05:58;;;;;;;10.80;5.68;;;;;;;-142.75;100.00;77698.38;4983848;28;20025;-66
2022/12/19 11:08:33;;;;;;;15.57;5.57;;;;;;;-142.75;100.00;77706.25;4983028;28;20051;-66
2022/12/19 11:11:05;;;;;;;10.80;5.85;;;;;;;-142.75;100.00;77700.34;4964636;28;20083;-66